logo
Search for airport 
image banner adimage banner adimage banner ad
image banner ad

EGLL - London Heathrow

Located in London, United Kingdom

ICAO - EGLL, IATA - LHR

Data provided by Airmate  

General information

Coordinates: N51°28'39" W0°27'41"
Elevation is 83 feet MSL.
 
Rated:
View ratings:
[VIEW]
View others Airports in England

Operational data

Special qualification required
Current time UTC:
Current local time:
Weather
METAR: EGLL 070220Z AUTO VRB01KT 9999 NCD 01/M01 Q1039 NOSIG
TAF: TAF EGLL 062258Z 0700/0806 20002KT CAVOK TEMPO 0704/0712 7000 PROB30 TEMPO 0706/0711 0300 FZFG VV/// TEMPO 0804/0806 7000 PROB30 TEMPO 0805/0806 0300 FZFG VV///
View NOTAMs / SUP AIP / TFR affecting this airport [VIEW]
Communications frequencies: [VIEW]

Runways:

RWY identifierQFULength (ft)Width (ft)SurfaceLDA (ft)
09L90°12799164ASP
27R270°12799164ASP
09R90°12001164ASP
27L270°12001164ASP

Airport contact information

Address: London United Kingdom

Handlers

Signature Flight Support

Signature Flight Support

Menzies Aviation

Menzies Aviation
[VIEW][VIEW]
+447711898398

Satellite view of EGLL